Weather Models
Both GFS & NAM
00z 06z 12z 18z
24hr Precip
00z 06z 12z 18z
36hr Simulated radar
00z 06z 12z 18z
SKEWT Soundings
00z 12z
Current Conditions (Updated 3:30pm on 5/22/19)
Temperature
 82°
-1.00
86°  
58°  
0
10
20
30
40
50
60
70
80
90
100
Dew Point
35°
40°  
32°  
-20
-10
0
10
20
30
40
50
60
70
80
Heat Index
80°
83°  
58°  
30
40
50
60
70
80
90
100
110
120
130
Heat Index
Humidity
20%
42% 
20% 
0
10
20
30
40
50
60
70
80
90
100
Barometer
30.22
   Falling
30.28  
30.13  
28.00
28.30
28.60
28.90
29.20
29.50
29.80
30.10
30.40
30.70
31.00
Temperature
Dew Point
Humidity
Pressure
Wind
6mph
 SE
Daily Rain
.00
.05
.10
.15
.20
.25
.30
.35
.40
.45
.50
Rain Today
 0.00" 
Month Rain
0.00
0.50
1.00
1.50
2.00
2.50
3.00
3.50
4.00
4.50
5.00
Month Rain
 4.43" 
Year Rain
0.00
2.50
5.00
7.50
10.00
12.50
15.00
17.50
20.00
22.50
25.00
Year Rain
 20.20" 
Sun & Moon Data
Sunrise 5:39am
Sunset 8:14pm
Moonrise 11:57pm
Moonset 8:46am
Moon % 86%
Other Rain Data
Past Hour 0.00 Past 24 Hours 0.00
Past 3 Hours 0.00 Past 7 Days 0.07
Past 6 Hours 0.00
Cloud Height
10500


Current Front Map
Current Satellite map
7 Day Forecast
NWS Forecast for Philadelphia PA
National Weather Service Forecast for: Philadelphia PA
Issued by: National Weather Service Philadelphia, PA
Updated: 1:26 pm EDT May 22, 2019

Philadelphia
 
Tonight

Tonight: A chance of showers and thunderstorms, mainly after 5am.  Mostly cloudy, with a low around 58. South wind 5 to 7 mph.  Chance of precipitation is 30%. New rainfall amounts of less than a tenth of an inch, except higher amounts possible in thunderstorms.
Partly Cloudy
then Chance
Showers
Thursday

Thursday: A chance of showers and thunderstorms before 8am, then a slight chance of showers between 8am and 2pm, then a chance of showers and thunderstorms after 2pm. Some of the storms could produce gusty winds.  Mostly cloudy, with a high near 80. Southwest wind 8 to 10 mph.  Chance of precipitation is 40%. New rainfall amounts of less than a tenth of an inch, except higher amounts possible in thunderstorms.
Chance
Showers then
Chance
T-storms
Thursday
Night
Thursday Night: A chance of showers and thunderstorms before 2am. Some of the storms could produce gusty winds.  Mostly cloudy, then gradually becoming mostly clear, with a low around 65. Southwest wind around 10 mph.  Chance of precipitation is 50%. New rainfall amounts between a quarter and half of an inch possible.
Chance
T-storms

Friday

Friday: Sunny, with a high near 80. Northwest wind 13 to 15 mph.
Sunny

Friday
Night
Friday Night: Partly cloudy, with a low around 58. North wind 8 to 13 mph becoming light northeast  after midnight.
Partly Cloudy

Saturday

Saturday: A slight chance of showers and thunderstorms after 2pm.  Mostly sunny, with a high near 80. Chance of precipitation is 20%.
Mostly Sunny
then Slight
Chance
T-storms
Saturday
Night
Saturday Night: A chance of showers and thunderstorms between 8pm and 2am.  Mostly cloudy, with a low around 66. Chance of precipitation is 30%.
Chance
T-storms

Sunday

Sunday: Mostly sunny, with a high near 87.
Mostly Sunny

Sunday
Night
Sunday Night: A chance of showers and thunderstorms between 8pm and 2am.  Mostly cloudy, with a low around 66. Chance of precipitation is 40%.
Chance
T-storms

Lo 58 °F Hi 80 °F Lo 65 °F Hi 80 °F Lo 58 °F Hi 80 °F Lo 66 °F Hi 87 °F Lo 66 °F

Hazardous Weather Outlook
 

Tonight
 
A chance of showers and thunderstorms, mainly after 5am. Mostly cloudy, with a low around 58. South wind 5 to 7 mph. Chance of precipitation is 30%. New rainfall amounts of less than a tenth of an inch, except higher amounts possible in thunderstorms.
Thursday
 
A chance of showers and thunderstorms before 8am, then a slight chance of showers between 8am and 2pm, then a chance of showers and thunderstorms after 2pm. Some of the storms could produce gusty winds. Mostly cloudy, with a high near 80. Southwest wind 8 to 10 mph. Chance of precipitation is 40%. New rainfall amounts of less than a tenth of an inch, except higher amounts possible in thunderstorms.
Thursday Night
 
A chance of showers and thunderstorms before 2am. Some of the storms could produce gusty winds. Mostly cloudy, then gradually becoming mostly clear, with a low around 65. Southwest wind around 10 mph. Chance of precipitation is 50%. New rainfall amounts between a quarter and half of an inch possible.
Friday
 
Sunny, with a high near 80. Northwest wind 13 to 15 mph.
Friday Night
 
Partly cloudy, with a low around 58. North wind 8 to 13 mph becoming light northeast after midnight.
Saturday
 
A slight chance of showers and thunderstorms after 2pm. Mostly sunny, with a high near 80. Chance of precipitation is 20%.
Saturday Night
 
A chance of showers and thunderstorms between 8pm and 2am. Mostly cloudy, with a low around 66. Chance of precipitation is 30%.
Sunday
 
Mostly sunny, with a high near 87.
Sunday Night
 
A chance of showers and thunderstorms between 8pm and 2am. Mostly cloudy, with a low around 66. Chance of precipitation is 40%.
Memorial Day
 
A chance of showers and thunderstorms after 2pm. Partly sunny, with a high near 83. Chance of precipitation is 30%.
Monday Night
 
A chance of showers and thunderstorms. Mostly cloudy, with a low around 61. Chance of precipitation is 30%.
Tuesday
 
Mostly sunny, with a high near 77.
Tuesday Night
 
Partly cloudy, with a low around 60.
Wednesday
 
Partly sunny, with a high near 81.

 

Forecast from NOAA-NWS for Philadelphia PA.

Area Weather Current Conditions
Nearby METAR Reports

KPHL - Philadelphia, Pennsylvania
Updated: Wed, 22-May-2019 2:54pm EDT
Mostly Cloudy
Mostly Cloudy
 Wind from SSW
Wind: SSW 9 mph , 15 km/h
Temperature: 73°F , 23°C
Dew Point: 36°F , 2°C
Humidity: 25%
Barometer: 30.24 inHg , 1024 hPa
Clouds: Mostly Cloudy
Visibility: 10 miles , 16 km
Cloud details: Partly Cloudy 22000 ft
Mostly Cloudy 28000 ft
2019/05/22 18:54 KPHL 221854Z 21008KT 10SM SCT220 BKN280 23/02 A3024 RMK AO2 SLP238 T02280017
KMPO - Mt. Pocono, Pennsylvania
Updated: Wed, 22-May-2019 2:53pm EDT
Clear
Clear
 Wind from SW
Wind: SW 5 mph , 7 km/h
Temperature: 68°F , 20°C
Dew Point: 34°F , 1°C
Humidity: 28%
Barometer: 30.23 inHg , 1023.7 hPa
Clouds: Clear
Visibility: 10 miles , 16 km
2019/05/22 18:53 KMPO 221853Z AUTO 22004KT 10SM CLR 20/01 A3023 RMK AO2 SLP236 T02000006
 
KACY - Atlantic City, New Jersey
Updated: Wed, 22-May-2019 2:54pm EDT
Clear
Clear
 Wind from SSE
Wind: SSE 13 mph , 20 km/h
Temperature: 70°F , 21°C
Dew Point: 41°F , 5°C
Humidity: 35%
Barometer: 30.24 inHg , 1024 hPa
Clouds: Clear
Visibility: 10 miles , 16 km
2019/05/22 18:54 KACY 221854Z 15011KT 10SM CLR 21/05 A3024 RMK AO2 SLP241 T02060050
KMIV - Millville, New Jersey
Updated: Wed, 22-May-2019 2:54pm EDT
Clear
Clear
 Wind from WSW
Wind: WSW 12 mph , 19 km/h
Temperature: 72°F , 22°C
Dew Point: 43°F , 6°C
Humidity: 36%
Barometer: 30.24 inHg , 1024 hPa
Clouds: Clear
Visibility: 10 miles , 16 km
2019/05/22 18:54 KMIV 221854Z AUTO 25010KT 10SM CLR 22/06 A3024 RMK AO2 SLP238 T02170061
 
KWWD - Wildwood, New Jersey
Updated: Wed, 22-May-2019 2:56pm EDT
Clear
Clear
 Wind from S
Wind: S 9 mph , 15 km/h
Temperature: 73°F , 23°C
Dew Point: 37°F , 3°C
Humidity: 27%
Barometer: 30.26 inHg , 1024.7 hPa
Clouds: Clear
Visibility: 10 miles , 16 km
2019/05/22 18:56 KWWD 221856Z AUTO 18008KT 10SM CLR 23/03 A3026 RMK AO2 SLP248 T02280033
KDOV - Dover Afb, Delaware
Updated: Wed, 22-May-2019 1:56pm EDT
NOT Current
Few Clouds
Few Clouds
 Wind from ESE
Wind: ESE 6 mph , 9 km/h
Temperature: 72°F , 22°C
Dew Point: 41°F , 5°C
Humidity: 33%
Barometer: 30.26 inHg , 1024.7 hPa
Clouds: Few Clouds
Visibility: 10 miles , 16 km
Cloud details: Few Clouds 21000 ft
2019/05/22 17:56 KDOV 221756Z AUTO 11005KT 10SM FEW210 22/05 A3026 RMK AO2 SLP250 T02210046 10222 20155 55002 $
Severe Weather Map